Time,TemperatureF,DewpointF,PressureIn,WindDirection,WindDirectionDegrees,WindSpeedMPH,WindSpeedGustMPH,Humidity,HourlyPrecipIn,Conditions,Clouds,dailyrainin,SolarRadiationWatts/m^2,SoftwareType,DateUTC
2013-01-27 00:11:00,56.0,55.0,30.03,SSW,200,0.0,-999.0,96,-99.99,,,0.00,0,weatherlink.com 1.10,2013-01-27 08:11:00,
2013-01-27 00:26:00,55.9,55.0,30.03,SSW,200,0.0,-999.0,97,-99.99,,,0.01,0,weatherlink.com 1.10,2013-01-27 08:26:00,
2013-01-27 00:41:00,55.9,55.0,30.03,SSW,200,0.0,-999.0,97,-99.99,,,0.01,0,weatherlink.com 1.10,2013-01-27 08:41:00,
2013-01-27 00:56:00,55.8,55.0,30.03,SSW,200,0.0,-999.0,97,-99.99,,,0.01,0,weatherlink.com 1.10,2013-01-27 08:56:00,
2013-01-27 01:11:00,55.8,55.0,30.03,SSW,200,0.0,-999.0,97,-99.99,,,0.01,0,weatherlink.com 1.10,2013-01-27 09:11:00,
2013-01-27 01:26:00,55.8,55.0,30.02,SSW,200,0.0,-999.0,97,-99.99,,,0.01,0,weatherlink.com 1.10,2013-01-27 09:26:00,
2013-01-27 01:41:00,55.9,55.0,30.02,SSW,200,0.0,-999.0,97,-99.99,,,0.01,0,weatherlink.com 1.10,2013-01-27 09:41:00,
2013-01-27 02:11:00,55.9,55.0,30.02,SSW,200,0.0,-999.0,97,-99.99,,,0.01,0,weatherlink.com 1.10,2013-01-27 10:11:00,
2013-01-27 02:26:00,55.9,55.0,30.02,SSE,168,0.0,-999.0,97,-99.99,,,0.01,0,weatherlink.com 1.10,2013-01-27 10:26:00,
2013-01-27 02:41:00,55.7,55.0,30.02,SSW,196,0.0,-999.0,97,-99.99,,,0.01,0,weatherlink.com 1.10,2013-01-27 10:41:00,
2013-01-27 02:56:00,55.7,55.0,30.02,SSW,196,0.0,-999.0,97,-99.99,,,0.01,0,weatherlink.com 1.10,2013-01-27 10:56:00,
2013-01-27 03:11:00,55.4,55.0,30.01,SSW,197,0.0,-999.0,97,-99.99,,,0.01,0,weatherlink.com 1.10,2013-01-27 11:11:00,
2013-01-27 03:26:00,55.2,54.0,30.01,SSW,197,0.0,-999.0,97,-99.99,,,0.01,0,weatherlink.com 1.10,2013-01-27 11:26:00,
2013-01-27 03:41:00,55.1,54.0,30.01,South,172,0.0,-999.0,97,-99.99,,,0.01,0,weatherlink.com 1.10,2013-01-27 11:41:00,
2013-01-27 03:56:00,54.9,54.0,30.01,SW,225,0.0,-999.0,97,-99.99,,,0.01,0,weatherlink.com 1.10,2013-01-27 11:56:00,
2013-01-27 04:11:00,54.6,54.0,30.00,SSW,198,3.0,-999.0,97,-99.99,,,0.01,0,weatherlink.com 1.10,2013-01-27 12:11:00,
2013-01-27 04:26:00,54.0,53.0,30.01,SSW,200,1.0,-999.0,97,-99.99,,,0.01,0,weatherlink.com 1.10,2013-01-27 12:26:00,
2013-01-27 04:41:00,54.1,53.0,30.01,South,183,0.0,-999.0,97,-99.99,,,0.02,0,weatherlink.com 1.10,2013-01-27 12:41:00,
2013-01-27 04:56:00,53.5,53.0,30.00,South,191,5.0,-999.0,97,-99.99,,,0.02,0,weatherlink.com 1.10,2013-01-27 12:56:00,
2013-01-27 05:11:00,53.3,53.0,30.00,South,176,0.0,-999.0,97,-99.99,,,0.02,0,weatherlink.com 1.10,2013-01-27 13:11:00,
2013-01-27 05:26:00,53.2,52.0,30.01,South,178,2.0,-999.0,97,-99.99,,,0.02,0,weatherlink.com 1.10,2013-01-27 13:26:00,
2013-01-27 05:41:00,53.0,52.0,30.02,SSE,162,4.0,-999.0,97,-99.99,,,0.02,0,weatherlink.com 1.10,2013-01-27 13:41:00,
2013-01-27 05:56:00,52.6,52.0,30.02,South,175,0.0,-999.0,97,-99.99,,,0.02,0,weatherlink.com 1.10,2013-01-27 13:56:00,
2013-01-27 06:11:00,52.4,52.0,30.02,South,178,0.0,-999.0,97,-99.99,,,0.02,0,weatherlink.com 1.10,2013-01-27 14:11:00,
2013-01-27 06:26:00,52.5,52.0,30.03,SSE,162,0.0,-999.0,97,-99.99,,,0.02,0,weatherlink.com 1.10,2013-01-27 14:26:00,
2013-01-27 06:41:00,52.3,52.0,30.03,SSE,153,3.0,-999.0,97,-99.99,,,0.02,0,weatherlink.com 1.10,2013-01-27 14:41:00,
2013-01-27 06:57:00,52.0,51.0,30.03,SE,138,3.0,-999.0,97,-99.99,,,0.02,0,weatherlink.com 1.10,2013-01-27 14:57:00,
2013-01-27 07:11:00,51.9,51.0,30.04,SE,129,0.0,-999.0,97,-99.99,,,0.02,9,weatherlink.com 1.10,2013-01-27 15:11:00,
2013-01-27 07:26:00,52.0,51.0,30.04,SE,142,0.0,-999.0,97,-99.99,,,0.02,11,weatherlink.com 1.10,2013-01-27 15:26:00,
2013-01-27 07:42:00,52.2,51.0,30.04,SE,132,0.0,-999.0,97,-99.99,,,0.02,14,weatherlink.com 1.10,2013-01-27 15:42:00,
2013-01-27 07:57:00,52.4,52.0,30.04,SE,126,0.0,-999.0,97,-99.99,,,0.02,23,weatherlink.com 1.10,2013-01-27 15:57:00,
2013-01-27 08:11:00,52.5,52.0,30.05,East,94,0.0,-999.0,97,-99.99,,,0.02,33,weatherlink.com 1.10,2013-01-27 16:11:00,
2013-01-27 08:26:00,52.5,52.0,30.05,East,97,0.0,-999.0,97,-99.99,,,0.02,51,weatherlink.com 1.10,2013-01-27 16:26:00,
2013-01-27 08:42:00,52.8,52.0,30.05,SE,139,2.0,-999.0,97,-99.99,,,0.02,83,weatherlink.com 1.10,2013-01-27 16:42:00,
2013-01-27 08:57:00,53.0,52.0,30.05,ENE,65,1.0,-999.0,97,-99.99,,,0.02,77,weatherlink.com 1.10,2013-01-27 16:57:00,
2013-01-27 09:12:00,53.2,52.0,30.05,ESE,108,0.0,-999.0,97,-99.99,,,0.02,118,weatherlink.com 1.10,2013-01-27 17:12:00,
2013-01-27 09:27:00,53.3,53.0,30.06,SSE,150,4.0,-999.0,97,-99.99,,,0.02,114,weatherlink.com 1.10,2013-01-27 17:27:00,
2013-01-27 09:42:00,53.5,52.0,30.07,ESE,108,0.0,-999.0,96,-99.99,,,0.02,100,weatherlink.com 1.10,2013-01-27 17:42:00,
2013-01-27 09:57:00,53.6,53.0,30.07,SE,144,3.0,-999.0,96,-99.99,,,0.02,107,weatherlink.com 1.10,2013-01-27 17:57:00,
2013-01-27 10:12:00,53.8,53.0,30.07,SE,138,4.0,-999.0,96,-99.99,,,0.02,141,weatherlink.com 1.10,2013-01-27 18:12:00,
2013-01-27 10:27:00,54.4,53.0,30.07,SE,127,3.0,-999.0,95,-99.99,,,0.02,135,weatherlink.com 1.10,2013-01-27 18:27:00,
2013-01-27 10:42:00,54.4,53.0,30.07,SE,138,1.0,-999.0,94,-99.99,,,0.02,153,weatherlink.com 1.10,2013-01-27 18:42:00,
2013-01-27 10:57:00,54.7,53.0,30.06,South,175,3.0,-999.0,93,-99.99,,,0.02,151,weatherlink.com 1.10,2013-01-27 18:57:00,
2013-01-27 11:12:00,54.9,53.0,30.06,SSE,160,6.0,-999.0,92,-99.99,,,0.02,190,weatherlink.com 1.10,2013-01-27 19:12:00,
2013-01-27 11:27:00,55.3,53.0,30.05,SSE,163,3.0,-999.0,90,-99.99,,,0.02,548,weatherlink.com 1.10,2013-01-27 19:27:00,
2013-01-27 11:42:00,55.8,52.0,30.05,South,191,4.0,-999.0,86,-99.99,,,0.02,257,weatherlink.com 1.10,2013-01-27 19:42:00,
2013-01-27 11:57:00,56.2,51.0,30.04,South,190,3.0,-999.0,83,-99.99,,,0.02,316,weatherlink.com 1.10,2013-01-27 19:57:00,
2013-01-27 12:12:00,56.7,51.0,30.04,SSW,194,6.0,-999.0,81,-99.99,,,0.02,244,weatherlink.com 1.10,2013-01-27 20:12:00,
2013-01-27 12:27:00,56.6,51.0,30.04,South,190,7.0,-999.0,80,-99.99,,,0.02,285,weatherlink.com 1.10,2013-01-27 20:27:00,
2013-01-27 12:42:00,56.4,50.0,30.03,SE,146,5.0,-999.0,79,-99.99,,,0.02,299,weatherlink.com 1.10,2013-01-27 20:42:00,
2013-01-27 12:57:00,57.7,50.0,30.02,South,176,5.0,-999.0,76,-99.99,,,0.02,737,weatherlink.com 1.10,2013-01-27 20:57:00,
2013-01-27 13:12:00,58.4,49.0,30.02,SSE,158,11.0,-999.0,70,-99.99,,,0.02,568,weatherlink.com 1.10,2013-01-27 21:12:00,
2013-01-27 13:27:00,58.7,48.0,30.01,South,191,7.0,-999.0,68,-99.99,,,0.02,598,weatherlink.com 1.10,2013-01-27 21:27:00,
2013-01-27 13:42:00,58.7,48.0,30.01,SSW,200,5.0,-999.0,68,-99.99,,,0.02,584,weatherlink.com 1.10,2013-01-27 21:42:00,
2013-01-27 13:57:00,58.5,48.0,30.00,SSE,162,8.0,-999.0,68,-99.99,,,0.02,578,weatherlink.com 1.10,2013-01-27 21:57:00,
2013-01-27 14:12:00,58.4,49.0,30.00,SE,140,5.0,-999.0,70,-99.99,,,0.02,506,weatherlink.com 1.10,2013-01-27 22:12:00,
2013-01-27 14:27:00,57.8,49.0,30.00,South,188,6.0,-999.0,73,-99.99,,,0.02,482,weatherlink.com 1.10,2013-01-27 22:27:00,
2013-01-27 14:42:00,56.8,48.0,30.00,South,171,6.0,-999.0,73,-99.99,,,0.02,97,weatherlink.com 1.10,2013-01-27 22:42:00,
2013-01-27 14:57:00,55.7,48.0,30.00,South,176,4.0,-999.0,75,-99.99,,,0.02,86,weatherlink.com 1.10,2013-01-27 22:57:00,
2013-01-27 15:12:00,55.4,48.0,30.00,SSW,193,5.0,-999.0,77,-99.99,,,0.02,67,weatherlink.com 1.10,2013-01-27 23:12:00,
2013-01-27 15:27:00,55.3,49.0,30.00,SSE,148,1.0,-999.0,78,-99.99,,,0.02,127,weatherlink.com 1.10,2013-01-27 23:27:00,
2013-01-27 15:43:00,55.9,50.0,30.00,SSW,197,1.0,-999.0,79,-99.99,,,0.02,251,weatherlink.com 1.10,2013-01-27 23:43:00,
2013-01-27 15:57:00,55.8,49.0,30.00,WSW,254,3.0,-999.0,78,-99.99,,,0.02,83,weatherlink.com 1.10,2013-01-27 23:57:00,
2013-01-27 16:12:00,55.5,49.0,30.00,SSE,155,3.0,-999.0,78,-99.99,,,0.02,98,weatherlink.com 1.10,2013-01-28 00:12:00,
2013-01-27 16:28:00,55.5,49.0,30.00,SSE,165,5.0,-999.0,79,-99.99,,,0.02,93,weatherlink.com 1.10,2013-01-28 00:28:00,
2013-01-27 16:42:00,55.1,48.0,30.00,SSE,167,0.0,-999.0,78,-99.99,,,0.02,46,weatherlink.com 1.10,2013-01-28 00:42:00,
2013-01-27 16:58:00,54.4,48.0,30.01,South,171,0.0,-999.0,78,-99.99,,,0.02,19,weatherlink.com 1.10,2013-01-28 00:58:00,
2013-01-27 17:13:00,54.0,48.0,30.01,SSE,161,0.0,-999.0,79,-99.99,,,0.02,5,weatherlink.com 1.10,2013-01-28 01:13:00,
2013-01-27 17:28:00,53.5,47.0,30.01,SSE,162,0.0,-999.0,79,-99.99,,,0.02,0,weatherlink.com 1.10,2013-01-28 01:28:00,
2013-01-27 17:42:00,52.9,47.0,30.01,SSE,159,0.0,-999.0,79,-99.99,,,0.02,0,weatherlink.com 1.10,2013-01-28 01:42:00,
2013-01-27 17:57:00,52.3,46.0,30.01,SE,146,0.0,-999.0,80,-99.99,,,0.02,0,weatherlink.com 1.10,2013-01-28 01:57:00,
2013-01-27 18:12:00,51.6,46.0,30.02,SE,146,0.0,-999.0,81,-99.99,,,0.02,0,weatherlink.com 1.10,2013-01-28 02:12:00,
2013-01-27 18:27:00,51.3,46.0,30.02,SE,146,0.0,-999.0,82,-99.99,,,0.02,0,weatherlink.com 1.10,2013-01-28 02:27:00,
2013-01-27 18:42:00,50.6,45.0,30.03,SSW,203,0.0,-999.0,82,-99.99,,,0.02,0,weatherlink.com 1.10,2013-01-28 02:42:00,
2013-01-27 18:58:00,50.2,45.0,30.03,SSW,203,0.0,-999.0,83,-99.99,,,0.02,0,weatherlink.com 1.10,2013-01-28 02:58:00,
2013-01-27 19:13:00,49.6,45.0,30.03,SE,142,0.0,-999.0,85,-99.99,,,0.02,0,weatherlink.com 1.10,2013-01-28 03:13:00,
2013-01-27 19:28:00,49.2,45.0,30.03,SE,142,0.0,-999.0,85,-99.99,,,0.02,0,weatherlink.com 1.10,2013-01-28 03:28:00,
2013-01-27 19:43:00,49.0,45.0,30.03,SE,142,0.0,-999.0,86,-99.99,,,0.02,0,weatherlink.com 1.10,2013-01-28 03:43:00,
2013-01-27 19:58:00,48.8,45.0,30.03,SE,142,0.0,-999.0,87,-99.99,,,0.02,0,weatherlink.com 1.10,2013-01-28 03:58:00,
2013-01-27 20:13:00,48.7,45.0,30.03,SE,142,0.0,-999.0,87,-99.99,,,0.02,0,weatherlink.com 1.10,2013-01-28 04:13:00,
2013-01-27 20:28:00,48.7,45.0,30.03,SE,142,0.0,-999.0,88,-99.99,,,0.02,0,weatherlink.com 1.10,2013-01-28 04:28:00,
2013-01-27 20:43:00,48.6,45.0,30.03,SE,142,0.0,-999.0,88,-99.99,,,0.02,0,weatherlink.com 1.10,2013-01-28 04:43:00,
2013-01-27 20:58:00,48.2,45.0,30.03,SE,142,0.0,-999.0,89,-99.99,,,0.02,0,weatherlink.com 1.10,2013-01-28 04:58:00,
2013-01-27 21:13:00,48.0,45.0,30.03,SE,138,0.0,-999.0,90,-99.99,,,0.02,0,weatherlink.com 1.10,2013-01-28 05:13:00,
2013-01-27 21:28:00,47.6,45.0,30.03,SE,138,0.0,-999.0,90,-99.99,,,0.02,0,weatherlink.com 1.10,2013-01-28 05:28:00,
2013-01-27 21:43:00,47.0,45.0,30.03,SE,138,0.0,-999.0,91,-99.99,,,0.02,0,weatherlink.com 1.10,2013-01-28 05:43:00,
2013-01-27 21:58:00,46.5,44.0,30.04,SE,138,0.0,-999.0,91,-99.99,,,0.02,0,weatherlink.com 1.10,2013-01-28 05:58:00,
2013-01-27 22:13:00,45.7,43.0,30.03,SE,138,0.0,-999.0,91,-99.99,,,0.02,0,weatherlink.com 1.10,2013-01-28 06:13:00,
2013-01-27 22:28:00,45.0,43.0,30.04,SE,138,0.0,-999.0,91,-99.99,,,0.02,0,weatherlink.com 1.10,2013-01-28 06:28:00,
2013-01-27 22:43:00,44.9,43.0,30.04,SE,138,0.0,-999.0,92,-99.99,,,0.02,0,weatherlink.com 1.10,2013-01-28 06:43:00,
2013-01-27 22:58:00,44.7,43.0,30.04,SE,138,0.0,-999.0,92,-99.99,,,0.02,0,weatherlink.com 1.10,2013-01-28 06:58:00,
2013-01-27 23:13:00,44.3,42.0,30.05,SE,138,0.0,-999.0,92,-99.99,,,0.02,0,weatherlink.com 1.10,2013-01-28 07:13:00,
2013-01-27 23:28:00,44.1,42.0,30.05,SE,138,0.0,-999.0,92,-99.99,,,0.02,0,weatherlink.com 1.10,2013-01-28 07:28:00,
2013-01-27 23:43:00,43.8,42.0,30.05,SE,138,0.0,-999.0,92,-99.99,,,0.02,0,weatherlink.com 1.10,2013-01-28 07:43:00,
2013-01-27 23:58:00,43.7,42.0,30.04,SE,138,0.0,-999.0,93,-99.99,,,0.02,0,weatherlink.com 1.10,2013-01-28 07:58:00,